createdAt,value
2018-11-05T00:01:20.434Z,6.70
2018-11-05T00:03:48.620Z,6.70
2018-11-05T00:06:16.801Z,6.70
2018-11-05T00:08:44.982Z,6.80
2018-11-05T00:11:13.165Z,6.80
2018-11-05T00:13:41.353Z,6.80
2018-11-05T00:16:09.538Z,6.80
2018-11-05T00:18:37.710Z,6.70
2018-11-05T00:21:05.957Z,6.80
2018-11-05T00:23:34.160Z,6.80
2018-11-05T00:26:02.348Z,6.90
2018-11-05T00:28:30.565Z,7.00
2018-11-05T00:30:58.745Z,6.90
2018-11-05T00:33:26.957Z,6.80
2018-11-05T00:35:55.125Z,6.70
2018-11-05T00:38:23.314Z,6.70
2018-11-05T00:40:51.494Z,6.60
2018-11-05T00:43:19.697Z,6.50
2018-11-05T00:45:47.956Z,6.50
2018-11-05T00:48:16.055Z,6.40
2018-11-05T00:50:44.222Z,6.50
2018-11-05T00:53:12.421Z,6.50
2018-11-05T00:55:40.612Z,6.60
2018-11-05T00:58:08.809Z,6.70
2018-11-05T01:00:37.251Z,6.70
2018-11-05T01:03:05.522Z,6.70
2018-11-05T01:05:33.717Z,6.60
2018-11-05T01:08:01.906Z,6.60
2018-11-05T01:10:30.087Z,6.50
2018-11-05T01:12:58.334Z,6.50
2018-11-05T01:15:26.497Z,6.60
2018-11-05T01:17:54.678Z,6.70
2018-11-05T01:20:22.891Z,6.80
2018-11-05T01:22:51.082Z,6.70
2018-11-05T01:25:19.272Z,6.70
2018-11-05T01:27:47.462Z,6.70
2018-11-05T01:30:15.650Z,6.70
2018-11-05T01:32:43.838Z,6.70
2018-11-05T01:35:13.090Z,6.70
2018-11-05T01:37:41.290Z,6.60
2018-11-05T01:40:11.902Z,6.60
2018-11-05T01:42:40.100Z,6.70
2018-11-05T01:45:09.572Z,6.60
2018-11-05T01:47:37.789Z,6.60
2018-11-05T01:50:07.227Z,6.50
2018-11-05T01:52:35.441Z,6.50
2018-11-05T01:55:03.665Z,6.40
2018-11-05T01:57:31.877Z,6.40
2018-11-05T02:00:00.082Z,6.30
2018-11-05T02:02:28.273Z,6.30
2018-11-05T02:04:56.465Z,6.20
2018-11-05T02:07:25.210Z,6.40
2018-11-05T02:09:53.442Z,6.30
2018-11-05T02:12:21.638Z,6.20
2018-11-05T02:14:49.830Z,6.20
2018-11-05T02:17:18.021Z,6.20
2018-11-05T02:19:46.200Z,6.20
2018-11-05T02:22:14.421Z,6.10
2018-11-05T02:24:42.973Z,6.00
2018-11-05T02:27:11.301Z,6.10
2018-11-05T02:29:39.378Z,6.20
2018-11-05T02:32:07.576Z,6.10
2018-11-05T02:34:35.766Z,6.20
2018-11-05T02:37:04.056Z,6.20
2018-11-05T02:39:32.258Z,6.30
2018-11-05T02:42:00.456Z,6.40
2018-11-05T02:44:28.649Z,6.40
2018-11-05T02:46:56.845Z,6.50
2018-11-05T02:49:25.056Z,6.50
2018-11-05T02:51:53.258Z,6.60
2018-11-05T02:54:21.446Z,6.70
2018-11-05T02:56:49.633Z,6.80
2018-11-05T02:59:17.879Z,6.80
2018-11-05T03:01:46.162Z,6.90
2018-11-05T03:04:14.370Z,6.90
2018-11-05T03:06:42.553Z,6.90
2018-11-05T03:09:12.128Z,7.00
2018-11-05T03:11:40.653Z,7.00
2018-11-05T03:14:09.091Z,7.10
2018-11-05T03:16:37.862Z,7.20
2018-11-05T03:19:06.257Z,7.10
2018-11-05T03:21:34.443Z,7.20
2018-11-05T03:24:02.693Z,7.30
2018-11-05T03:26:31.178Z,7.30
2018-11-05T03:28:59.506Z,7.30
2018-11-05T03:31:27.689Z,7.30
2018-11-05T03:33:55.912Z,7.20
2018-11-05T03:36:24.209Z,7.30
2018-11-05T03:38:52.418Z,7.30
2018-11-05T03:41:20.643Z,7.40
2018-11-05T03:43:48.893Z,7.40
2018-11-05T03:46:17.090Z,7.50
2018-11-05T03:48:45.286Z,7.50
2018-11-05T03:51:13.477Z,7.50
2018-11-05T03:53:41.684Z,7.60
2018-11-05T03:56:09.908Z,7.50
2018-11-05T03:58:38.064Z,7.60
2018-11-05T04:01:06.273Z,7.60
2018-11-05T04:03:34.498Z,7.60
2018-11-05T04:06:02.665Z,7.70
2018-11-05T04:08:30.858Z,7.70
2018-11-05T04:10:59.037Z,7.80
2018-11-05T04:13:27.250Z,7.80
2018-11-05T04:15:55.492Z,7.80
2018-11-05T04:18:23.642Z,7.80
2018-11-05T04:20:51.825Z,7.90
2018-11-05T04:23:20.026Z,7.90
2018-11-05T04:25:48.213Z,7.90
2018-11-05T04:28:16.401Z,7.80
2018-11-05T04:30:44.589Z,7.80
2018-11-05T04:33:12.797Z,7.80
2018-11-05T04:35:40.977Z,7.80
2018-11-05T04:38:09.177Z,7.90
2018-11-05T04:40:37.382Z,7.90
2018-11-05T04:43:05.600Z,7.80
2018-11-05T04:45:33.796Z,7.80
2018-11-05T04:48:01.999Z,7.80
2018-11-05T04:50:30.196Z,7.90
2018-11-05T04:52:58.409Z,7.90
2018-11-05T04:55:26.615Z,7.90
2018-11-05T04:57:54.837Z,7.80
2018-11-05T05:00:23.038Z,7.90
2018-11-05T05:02:51.234Z,7.90
2018-11-05T05:05:19.430Z,7.90
2018-11-05T05:07:47.637Z,7.90
2018-11-05T05:10:15.838Z,7.90
2018-11-05T05:12:44.301Z,8.00
2018-11-05T05:15:12.802Z,8.00
2018-11-05T05:17:41.478Z,7.90
2018-11-05T05:20:12.026Z,7.90
2018-11-05T05:22:40.388Z,7.90
2018-11-05T05:25:08.473Z,7.90
2018-11-05T05:27:36.691Z,8.00
2018-11-05T05:30:07.873Z,7.90
2018-11-05T05:32:36.054Z,7.90
2018-11-05T05:35:04.264Z,7.90
2018-11-05T05:37:32.492Z,8.00
2018-11-05T05:40:00.716Z,8.00
2018-11-05T05:42:28.945Z,8.20
2018-11-05T05:44:57.161Z,8.30
2018-11-05T05:47:25.353Z,8.30
2018-11-05T05:49:53.607Z,8.30
2018-11-05T05:52:21.811Z,8.30
2018-11-05T05:54:50.005Z,8.30
2018-11-05T05:57:18.198Z,8.40
2018-11-05T05:59:46.484Z,8.40
2018-11-05T06:02:14.669Z,8.40
2018-11-05T06:04:42.865Z,8.40
2018-11-05T06:07:11.061Z,8.40
2018-11-05T06:09:39.266Z,8.30
2018-11-05T06:12:07.456Z,8.40
2018-11-05T06:14:35.666Z,8.30
2018-11-05T06:17:03.841Z,8.30
2018-11-05T06:19:32.045Z,8.30
2018-11-05T06:22:00.306Z,8.30
2018-11-05T06:24:28.439Z,8.40
2018-11-05T06:26:56.621Z,8.30
2018-11-05T06:29:24.817Z,8.30
2018-11-05T06:31:52.999Z,8.40
2018-11-05T06:34:21.207Z,8.40
2018-11-05T06:36:49.381Z,8.30
2018-11-05T06:39:17.607Z,8.30
2018-11-05T06:41:45.867Z,8.30
2018-11-05T06:44:14.062Z,8.20
2018-11-05T06:46:42.193Z,8.30
2018-11-05T06:49:10.392Z,8.30
2018-11-05T06:51:38.573Z,8.40
2018-11-05T06:54:06.786Z,8.30
2018-11-05T06:56:35.138Z,8.20
2018-11-05T06:59:03.338Z,8.10
2018-11-05T07:01:31.957Z,8.10
2018-11-05T07:04:00.170Z,8.20
2018-11-05T07:06:28.429Z,8.30
2018-11-05T07:08:56.694Z,8.30
2018-11-05T07:11:24.972Z,8.40
2018-11-05T07:13:53.086Z,8.40
2018-11-05T07:16:21.278Z,8.40
2018-11-05T07:18:49.672Z,8.40
2018-11-05T07:21:17.861Z,8.30
2018-11-05T07:23:46.085Z,8.30
2018-11-05T07:26:14.282Z,8.40
2018-11-05T07:28:42.473Z,8.40
2018-11-05T07:31:10.682Z,8.40
2018-11-05T07:33:38.932Z,8.40
2018-11-05T07:36:07.089Z,8.40
2018-11-05T07:38:35.286Z,8.40
2018-11-05T07:41:03.498Z,8.40
2018-11-05T07:43:31.697Z,8.40
2018-11-05T07:45:59.905Z,8.40
2018-11-05T07:48:28.089Z,8.40
2018-11-05T07:50:56.302Z,8.40
2018-11-05T07:53:24.505Z,8.30
2018-11-05T07:55:52.748Z,8.40
2018-11-05T07:58:20.950Z,8.40
2018-11-05T08:00:49.163Z,8.50
2018-11-05T08:03:17.346Z,8.50
2018-11-05T08:05:45.555Z,8.60
2018-11-05T08:08:15.787Z,8.70
2018-11-05T08:10:43.972Z,8.80
2018-11-05T08:13:12.171Z,8.80
2018-11-05T08:15:40.402Z,8.80
2018-11-05T08:18:08.557Z,8.90
2018-11-05T08:20:36.757Z,8.90
2018-11-05T08:23:04.975Z,8.80
2018-11-05T08:25:33.177Z,8.60
2018-11-05T08:28:01.369Z,8.70
2018-11-05T08:30:29.571Z,8.80
2018-11-05T08:32:57.780Z,8.80
2018-11-05T08:35:25.995Z,8.70
2018-11-05T08:37:54.546Z,8.70
2018-11-05T08:40:24.800Z,8.70
2018-11-05T08:42:53.760Z,8.70
2018-11-05T08:45:24.193Z,8.80
2018-11-05T08:47:52.405Z,8.80
2018-11-05T08:50:22.046Z,8.90
2018-11-05T08:52:50.111Z,8.90
2018-11-05T08:55:25.988Z,8.90
2018-11-05T08:57:54.191Z,8.90
2018-11-05T09:00:27.850Z,8.90
2018-11-05T09:02:56.169Z,8.80
2018-11-05T09:05:24.536Z,8.80
2018-11-05T09:07:53.526Z,8.70
2018-11-05T09:10:21.895Z,8.70
2018-11-05T09:12:49.941Z,8.70
2018-11-05T09:15:19.394Z,8.70
2018-11-05T09:17:47.979Z,8.80
2018-11-05T09:20:17.187Z,8.80
2018-11-05T09:22:46.462Z,8.90
2018-11-05T09:25:15.489Z,9.00
2018-11-05T09:27:43.734Z,9.10
2018-11-05T09:30:15.095Z,9.10
2018-11-05T09:32:44.120Z,9.10
2018-11-05T09:35:12.347Z,9.30
2018-11-05T09:37:40.551Z,9.30
2018-11-05T09:40:11.115Z,9.40
2018-11-05T09:42:39.942Z,9.40
2018-11-05T09:45:10.994Z,9.40
2018-11-05T09:47:39.202Z,9.50
2018-11-05T09:50:08.469Z,9.60
2018-11-05T09:52:36.786Z,9.60
2018-11-05T09:55:05.210Z,9.50
2018-11-05T09:57:33.425Z,9.40
2018-11-05T10:00:01.722Z,9.40
2018-11-05T10:02:35.226Z,9.50
2018-11-05T10:05:03.650Z,9.60
2018-11-05T10:07:31.682Z,9.60
2018-11-05T10:09:59.891Z,9.70
2018-11-05T10:12:28.113Z,9.70
2018-11-05T10:14:56.575Z,9.80
2018-11-05T10:17:24.828Z,9.80
2018-11-05T10:19:53.031Z,9.80
2018-11-05T10:22:21.231Z,9.80
2018-11-05T10:24:49.505Z,9.90
2018-11-05T10:27:17.653Z,10.10
2018-11-05T10:29:45.853Z,10.10
2018-11-05T10:32:14.067Z,10.20
2018-11-05T10:34:42.280Z,10.10
2018-11-05T10:37:10.489Z,10.10
2018-11-05T10:39:38.697Z,10.20
2018-11-05T10:42:06.913Z,10.20
2018-11-05T10:44:35.468Z,10.30
2018-11-05T10:47:03.682Z,10.20
2018-11-05T10:49:31.895Z,10.30
2018-11-05T10:52:00.224Z,10.30
2018-11-05T10:54:28.345Z,10.40
2018-11-05T10:56:56.615Z,10.40
2018-11-05T10:59:24.762Z,10.50
2018-11-05T11:01:58.448Z,10.50
2018-11-05T11:04:31.817Z,10.50
2018-11-05T11:07:00.222Z,10.60
2018-11-05T11:09:28.471Z,10.70
2018-11-05T11:11:57.173Z,10.70
2018-11-05T11:14:25.388Z,10.70
2018-11-05T11:16:53.637Z,10.70
2018-11-05T11:19:21.814Z,10.80
2018-11-05T11:21:50.080Z,10.80
2018-11-05T11:24:18.742Z,10.90
2018-11-05T11:26:46.996Z,10.90
2018-11-05T11:29:15.378Z,10.90
2018-11-05T11:31:43.489Z,11.00
2018-11-05T11:34:11.729Z,11.00
2018-11-05T11:36:40.059Z,11.10
2018-11-05T11:39:10.052Z,11.10
2018-11-05T11:41:38.266Z,11.10
2018-11-05T11:44:06.599Z,11.10
2018-11-05T11:46:35.182Z,11.20
2018-11-05T11:49:03.386Z,11.20
2018-11-05T11:51:31.609Z,11.30
2018-11-05T11:53:59.845Z,11.40
2018-11-05T11:56:28.310Z,11.40
2018-11-05T11:58:56.505Z,11.50
2018-11-05T12:01:24.719Z,11.60
2018-11-05T12:03:52.961Z,11.70
2018-11-05T12:06:21.166Z,11.90
2018-11-05T12:08:49.661Z,12.20
2018-11-05T12:11:17.891Z,12.50
2018-11-05T12:13:46.088Z,12.70
2018-11-05T12:16:14.391Z,12.80
2018-11-05T12:18:42.751Z,12.70
2018-11-05T12:21:10.992Z,12.80
2018-11-05T12:23:39.198Z,12.80
2018-11-05T12:26:07.399Z,12.80
2018-11-05T12:28:35.606Z,12.80
2018-11-05T12:31:03.815Z,12.70
2018-11-05T12:33:32.038Z,12.70
2018-11-05T12:36:00.240Z,12.70
2018-11-05T12:38:28.434Z,12.70
2018-11-05T12:40:56.637Z,12.70
2018-11-05T12:43:24.835Z,12.60
2018-11-05T12:45:53.045Z,12.60
2018-11-05T12:48:21.245Z,12.40
2018-11-05T12:50:49.538Z,12.40
2018-11-05T12:53:17.666Z,12.40
2018-11-05T12:55:45.942Z,12.30
2018-11-05T12:58:14.146Z,12.30
2018-11-05T13:00:42.357Z,12.30
2018-11-05T13:03:10.592Z,12.20
2018-11-05T13:05:38.789Z,12.10
2018-11-05T13:08:07.028Z,12.10
2018-11-05T13:10:35.234Z,12.10
2018-11-05T13:13:03.478Z,12.10
2018-11-05T13:15:31.654Z,12.00
2018-11-05T13:17:59.859Z,11.90
2018-11-05T13:20:28.077Z,11.90
2018-11-05T13:23:02.877Z,11.80
2018-11-05T13:25:31.118Z,11.70
2018-11-05T13:27:59.338Z,11.70
2018-11-05T13:30:27.525Z,11.80
2018-11-05T13:32:55.737Z,11.90
2018-11-05T13:35:23.936Z,11.80
2018-11-05T13:37:52.617Z,11.70
2018-11-05T13:40:21.656Z,11.60
2018-11-05T13:42:50.435Z,11.60
2018-11-05T13:45:19.119Z,11.60
2018-11-05T13:47:47.947Z,11.70
2018-11-05T13:50:16.250Z,11.60
2018-11-05T13:52:44.148Z,11.60
2018-11-05T13:55:13.559Z,11.60
2018-11-05T13:57:42.838Z,11.50
2018-11-05T14:00:13.181Z,11.50
2018-11-05T14:02:41.377Z,11.40
2018-11-05T14:05:10.238Z,11.40
2018-11-05T14:07:38.737Z,11.40
2018-11-05T14:10:09.245Z,11.40
2018-11-05T14:12:37.612Z,11.40
2018-11-05T14:15:06.158Z,11.30
2018-11-05T14:17:34.394Z,11.30
2018-11-05T14:20:02.610Z,11.20
2018-11-05T14:22:30.917Z,11.20
2018-11-05T14:24:59.115Z,11.20
2018-11-05T14:27:27.500Z,11.20
2018-11-05T14:29:55.900Z,11.20
2018-11-05T14:32:23.755Z,11.10
2018-11-05T14:34:52.018Z,11.10
2018-11-05T14:37:20.821Z,11.00
2018-11-05T14:39:49.010Z,11.00
2018-11-05T14:42:17.244Z,11.00
2018-11-05T14:44:45.453Z,10.90
2018-11-05T14:47:13.675Z,10.80
2018-11-05T14:49:42.073Z,10.80
2018-11-05T14:52:10.281Z,10.80
2018-11-05T14:54:38.599Z,10.70
2018-11-05T14:57:07.004Z,10.70
2018-11-05T14:59:35.230Z,10.60
2018-11-05T15:02:08.931Z,10.60
2018-11-05T15:04:37.181Z,10.60
2018-11-05T15:07:05.590Z,10.60
2018-11-05T15:09:33.799Z,10.60
2018-11-05T15:12:02.050Z,10.60
2018-11-05T15:14:30.452Z,10.50
2018-11-05T15:16:58.913Z,10.40
2018-11-05T15:19:27.890Z,10.30
2018-11-05T15:21:55.802Z,10.20
2018-11-05T15:24:24.034Z,10.10
2018-11-05T15:26:52.390Z,10.00
2018-11-05T15:29:20.441Z,9.90
2018-11-05T15:31:48.649Z,9.80
2018-11-05T15:34:16.863Z,9.70
2018-11-05T15:36:45.061Z,9.60
2018-11-05T15:39:13.266Z,9.60
2018-11-05T15:41:41.468Z,9.50
2018-11-05T15:44:09.682Z,9.40
2018-11-05T15:46:37.891Z,9.30
2018-11-05T15:49:06.110Z,9.20
2018-11-05T15:51:34.474Z,9.10
2018-11-05T15:54:02.570Z,9.10
2018-11-05T15:56:30.782Z,9.10
2018-11-05T15:58:59.022Z,9.00
2018-11-05T16:01:27.293Z,9.00
2018-11-05T16:03:55.510Z,8.90
2018-11-05T16:06:23.865Z,8.80
2018-11-05T16:08:52.134Z,8.80
2018-11-05T16:11:20.341Z,8.70
2018-11-05T16:13:48.542Z,8.70
2018-11-05T16:16:16.738Z,8.70
2018-11-05T16:18:44.977Z,8.60
2018-11-05T16:21:13.189Z,8.50
2018-11-05T16:23:41.536Z,8.50
2018-11-05T16:26:09.696Z,8.40
2018-11-05T16:28:37.899Z,8.30
2018-11-05T16:31:06.207Z,8.30
2018-11-05T16:33:34.504Z,8.20
2018-11-05T16:36:02.713Z,8.20
2018-11-05T16:38:31.009Z,8.20
2018-11-05T16:40:59.139Z,8.10
2018-11-05T16:43:27.374Z,8.10
2018-11-05T16:45:55.670Z,8.10
2018-11-05T16:48:23.843Z,8.10
2018-11-05T16:50:52.103Z,8.00
2018-11-05T16:53:20.387Z,7.90
2018-11-05T16:55:48.579Z,7.90
2018-11-05T16:58:16.850Z,7.90
2018-11-05T17:00:45.170Z,7.90
2018-11-05T17:03:13.341Z,7.90
2018-11-05T17:05:41.473Z,7.90
2018-11-05T17:08:09.665Z,7.90
2018-11-05T17:10:37.868Z,8.00
2018-11-05T17:13:06.389Z,8.00
2018-11-05T17:15:34.556Z,8.00
2018-11-05T17:18:02.754Z,8.20
2018-11-05T17:20:30.952Z,8.30
2018-11-05T17:22:59.129Z,8.20
2018-11-05T17:25:27.399Z,8.10
2018-11-05T17:27:55.623Z,8.10
2018-11-05T17:30:23.812Z,8.10
2018-11-05T17:32:52.142Z,8.00
2018-11-05T17:35:20.430Z,8.00
2018-11-05T17:37:48.906Z,8.00
2018-11-05T17:40:18.656Z,8.10
2018-11-05T17:42:46.768Z,8.20
2018-11-05T17:45:16.298Z,8.20
2018-11-05T17:47:44.761Z,8.20
2018-11-05T17:50:16.523Z,8.20
2018-11-05T17:52:45.007Z,8.30
2018-11-05T17:55:13.502Z,8.20
2018-11-05T17:57:42.765Z,8.20
2018-11-05T18:00:13.669Z,8.20
2018-11-05T18:02:41.870Z,8.30
2018-11-05T18:05:10.087Z,8.30
2018-11-05T18:07:38.273Z,8.40
2018-11-05T18:10:07.110Z,8.30
2018-11-05T18:12:35.309Z,8.30
2018-11-05T18:15:03.805Z,8.40
2018-11-05T18:17:31.993Z,8.40
2018-11-05T18:20:00.237Z,8.40
2018-11-05T18:22:28.434Z,8.40
2018-11-05T18:24:56.650Z,8.40
2018-11-05T18:27:24.849Z,8.40
2018-11-05T18:29:53.058Z,8.40
2018-11-05T18:32:22.045Z,8.40
2018-11-05T18:34:51.764Z,8.30
2018-11-05T18:37:20.278Z,8.20
2018-11-05T18:39:48.806Z,8.20
2018-11-05T18:42:17.189Z,8.20
2018-11-05T18:44:45.509Z,8.30
2018-11-05T18:47:13.735Z,8.20
2018-11-05T18:49:48.702Z,8.20
2018-11-05T18:52:16.889Z,8.30
2018-11-05T18:54:45.255Z,8.20
2018-11-05T18:57:13.675Z,8.20
2018-11-05T18:59:42.141Z,8.30
2018-11-05T19:02:13.442Z,8.20
2018-11-05T19:04:41.788Z,8.10
2018-11-05T19:07:10.189Z,8.10
2018-11-05T19:09:38.446Z,8.10
2018-11-05T19:12:06.654Z,8.10
2018-11-05T19:14:34.862Z,8.10
2018-11-05T19:17:03.053Z,8.00
2018-11-05T19:19:31.258Z,8.00
2018-11-05T19:21:59.490Z,8.10
2018-11-05T19:24:27.950Z,8.20
2018-11-05T19:26:55.914Z,8.20
2018-11-05T19:29:24.152Z,8.20
2018-11-05T19:31:52.374Z,8.20
2018-11-05T19:34:20.580Z,8.20
2018-11-05T19:36:48.846Z,8.10
2018-11-05T19:39:17.117Z,8.10
2018-11-05T19:41:45.460Z,8.00
2018-11-05T19:44:13.702Z,7.90
2018-11-05T19:46:41.923Z,7.90
2018-11-05T19:51:58.041Z,7.70
2018-11-05T19:54:26.246Z,7.60
2018-11-05T19:56:54.528Z,7.50
2018-11-05T19:59:22.762Z,7.50
2018-11-05T20:01:50.961Z,7.50
2018-11-05T20:04:19.168Z,7.40
2018-11-05T20:06:47.369Z,7.40
2018-11-05T20:09:15.575Z,7.50
2018-11-05T20:11:43.771Z,7.40
2018-11-05T20:14:11.966Z,7.40
2018-11-05T20:16:40.210Z,7.30
2018-11-05T20:19:08.401Z,7.20
2018-11-05T20:21:36.573Z,7.30
2018-11-05T20:24:04.821Z,7.40
2018-11-05T20:26:33.119Z,7.30
2018-11-05T20:29:01.479Z,7.30
2018-11-05T20:31:29.879Z,7.20
2018-11-05T20:33:58.074Z,7.30
2018-11-05T20:36:26.064Z,7.30
2018-11-05T20:38:54.263Z,7.40
2018-11-05T20:41:22.462Z,7.30
2018-11-05T20:43:50.650Z,7.20
2018-11-05T20:46:18.858Z,7.20
2018-11-05T20:48:47.047Z,7.10
2018-11-05T20:51:15.390Z,7.00
2018-11-05T20:53:43.640Z,7.00
2018-11-05T20:56:11.892Z,6.90
2018-11-05T20:58:40.090Z,6.90
2018-11-05T21:01:08.491Z,6.80
2018-11-05T21:10:00.079Z,6.80
2018-11-05T21:18:10.238Z,6.70
2018-11-05T21:20:38.444Z,6.60
2018-11-05T21:23:06.728Z,6.60
2018-11-05T21:25:34.873Z,6.50
2018-11-05T21:28:03.066Z,6.60
2018-11-05T21:30:31.352Z,6.40
2018-11-05T21:32:59.682Z,6.30
2018-11-05T21:35:27.777Z,6.40
2018-11-05T21:37:55.987Z,6.40
2018-11-05T21:40:24.201Z,6.40
2018-11-05T21:42:52.398Z,6.30
2018-11-05T21:45:20.616Z,6.30
2018-11-05T21:47:48.822Z,6.20
2018-11-05T21:50:18.305Z,6.20
2018-11-05T21:52:46.883Z,6.20
2018-11-05T21:55:15.095Z,6.10
2018-11-05T21:57:44.575Z,6.00
2018-11-05T22:00:14.501Z,6.00
2018-11-05T22:02:47.993Z,6.00
2018-11-05T22:05:16.469Z,6.00
2018-11-05T22:07:44.736Z,6.10
2018-11-05T22:10:13.490Z,6.00
2018-11-05T22:12:42.101Z,5.90
2018-11-05T22:15:10.313Z,6.00
2018-11-05T22:17:38.513Z,5.90
2018-11-05T22:20:07.796Z,5.80
2018-11-05T22:22:36.129Z,5.70
2018-11-05T22:25:04.345Z,5.70
2018-11-05T22:27:32.603Z,5.70
2018-11-05T22:30:01.482Z,5.70
2018-11-05T22:32:30.081Z,5.70
2018-11-05T22:34:59.157Z,5.70
2018-11-05T22:37:27.366Z,5.70
2018-11-05T22:39:55.564Z,5.70
2018-11-05T22:42:23.777Z,5.70
2018-11-05T22:44:51.972Z,5.70
2018-11-05T22:47:20.181Z,5.70
2018-11-05T22:49:48.370Z,5.70
2018-11-05T22:52:16.577Z,5.80
2018-11-05T22:54:44.765Z,5.80
2018-11-05T22:57:12.966Z,5.80
2018-11-05T22:59:41.153Z,5.70
2018-11-05T23:02:09.353Z,5.70
2018-11-05T23:04:38.079Z,5.60
2018-11-05T23:07:06.297Z,5.60
2018-11-05T23:09:34.490Z,5.70
2018-11-05T23:12:02.692Z,5.70
2018-11-05T23:14:30.883Z,5.70
2018-11-05T23:16:59.270Z,5.70
2018-11-05T23:19:27.470Z,5.80
2018-11-05T23:21:55.673Z,5.80
2018-11-05T23:24:23.893Z,5.80
2018-11-05T23:26:52.098Z,5.80
2018-11-05T23:29:20.291Z,5.80
2018-11-05T23:31:48.507Z,5.70
2018-11-05T23:34:18.166Z,5.60
2018-11-05T23:36:48.727Z,5.50
2018-11-05T23:39:16.906Z,5.50
2018-11-05T23:41:45.114Z,5.50
2018-11-05T23:44:13.362Z,5.60
2018-11-05T23:46:41.517Z,5.60
2018-11-05T23:49:09.710Z,5.60
2018-11-05T23:51:37.934Z,5.60
2018-11-05T23:54:06.359Z,5.70
2018-11-05T23:56:34.578Z,5.70
2018-11-05T23:59:02.843Z,5.70
